sensor_id;sensor_type;location;lat;lon;timestamp;P1;durP1;ratioP1;P2;durP2;ratioP2
47025;SDS011;32783;51.756;-2.556;2023-06-22T00:00:27;3.13;;;1.80;;
47025;SDS011;32783;51.756;-2.556;2023-06-22T00:02:52;1.88;;;1.70;;
47025;SDS011;32783;51.756;-2.556;2023-06-22T00:05:17;2.58;;;1.60;;
47025;SDS011;32783;51.756;-2.556;2023-06-22T00:07:43;1.85;;;1.75;;
47025;SDS011;32783;51.756;-2.556;2023-06-22T00:10:08;1.90;;;1.80;;
47025;SDS011;32783;51.756;-2.556;2023-06-22T00:12:33;1.50;;;1.40;;
47025;SDS011;32783;51.756;-2.556;2023-06-22T00:14:59;1.67;;;1.58;;
47025;SDS011;32783;51.756;-2.556;2023-06-22T00:17:24;2.22;;;1.73;;
47025;SDS011;32783;51.756;-2.556;2023-06-22T00:19:49;2.33;;;2.00;;
47025;SDS011;32783;51.756;-2.556;2023-06-22T00:22:18;1.60;;;1.50;;
47025;SDS011;32783;51.756;-2.556;2023-06-22T00:24:53;1.73;;;1.63;;
47025;SDS011;32783;51.756;-2.556;2023-06-22T00:27:18;1.77;;;1.67;;
47025;SDS011;32783;51.756;-2.556;2023-06-22T00:29:43;1.63;;;1.52;;
47025;SDS011;32783;51.756;-2.556;2023-06-22T00:32:09;2.03;;;1.70;;
47025;SDS011;32783;51.756;-2.556;2023-06-22T00:34:34;1.60;;;1.50;;
47025;SDS011;32783;51.756;-2.556;2023-06-22T00:36:59;1.77;;;1.52;;
47025;SDS011;32783;51.756;-2.556;2023-06-22T00:39:25;1.90;;;1.63;;
47025;SDS011;32783;51.756;-2.556;2023-06-22T00:41:50;1.80;;;1.70;;
47025;SDS011;32783;51.756;-2.556;2023-06-22T00:44:15;1.70;;;1.60;;
47025;SDS011;32783;51.756;-2.556;2023-06-22T00:46:41;1.55;;;1.40;;
47025;SDS011;32783;51.756;-2.556;2023-06-22T00:49:06;2.00;;;1.80;;
47025;SDS011;32783;51.756;-2.556;2023-06-22T00:51:32;1.70;;;1.60;;
47025;SDS011;32783;51.756;-2.556;2023-06-22T00:53:57;1.90;;;1.80;;
47025;SDS011;32783;51.756;-2.556;2023-06-22T00:56:23;1.50;;;1.40;;
47025;SDS011;32783;51.756;-2.556;2023-06-22T00:58:49;2.67;;;1.25;;
47025;SDS011;32783;51.756;-2.556;2023-06-22T01:01:17;1.58;;;1.42;;
47025;SDS011;32783;51.756;-2.556;2023-06-22T01:03:48;1.52;;;1.42;;
47025;SDS011;32783;51.756;-2.556;2023-06-22T01:06:15;1.60;;;1.50;;
47025;SDS011;32783;51.756;-2.556;2023-06-22T01:08:51;1.42;;;1.33;;
47025;SDS011;32783;51.756;-2.556;2023-06-22T01:11:24;1.80;;;1.70;;
47025;SDS011;32783;51.756;-2.556;2023-06-22T01:14:28;1.77;;;1.67;;
47025;SDS011;32783;51.756;-2.556;2023-06-22T01:16:46;1.58;;;1.40;;
47025;SDS011;32783;51.756;-2.556;2023-06-22T01:19:27;1.60;;;1.40;;
47025;SDS011;32783;51.756;-2.556;2023-06-22T01:21:59;1.50;;;1.40;;
47025;SDS011;32783;51.756;-2.556;2023-06-22T01:24:33;1.73;;;1.63;;
47025;SDS011;32783;51.756;-2.556;2023-06-22T01:27:32;2.00;;;1.33;;
47025;SDS011;32783;51.756;-2.556;2023-06-22T01:30:06;1.52;;;1.42;;
47025;SDS011;32783;51.756;-2.556;2023-06-22T01:32:35;1.52;;;1.40;;
47025;SDS011;32783;51.756;-2.556;2023-06-22T01:35:03;2.03;;;1.60;;
47025;SDS011;32783;51.756;-2.556;2023-06-22T01:37:30;1.60;;;1.47;;
47025;SDS011;32783;51.756;-2.556;2023-06-22T01:39:58;1.40;;;1.30;;
47025;SDS011;32783;51.756;-2.556;2023-06-22T01:42:24;1.45;;;1.35;;
47025;SDS011;32783;51.756;-2.556;2023-06-22T01:44:50;1.50;;;1.40;;
47025;SDS011;32783;51.756;-2.556;2023-06-22T01:47:17;1.80;;;1.70;;
47025;SDS011;32783;51.756;-2.556;2023-06-22T01:49:42;2.75;;;1.45;;
47025;SDS011;32783;51.756;-2.556;2023-06-22T01:52:08;1.65;;;1.55;;
47025;SDS011;32783;51.756;-2.556;2023-06-22T01:54:34;1.70;;;1.60;;
47025;SDS011;32783;51.756;-2.556;2023-06-22T01:56:59;1.67;;;1.58;;
47025;SDS011;32783;51.756;-2.556;2023-06-22T01:59:34;1.30;;;1.20;;
47025;SDS011;32783;51.756;-2.556;2023-06-22T02:02:06;1.65;;;1.55;;
47025;SDS011;32783;51.756;-2.556;2023-06-22T02:04:34;1.60;;;1.50;;
47025;SDS011;32783;51.756;-2.556;2023-06-22T02:07:03;1.65;;;1.52;;
47025;SDS011;32783;51.756;-2.556;2023-06-22T02:09:31;2.05;;;1.55;;
47025;SDS011;32783;51.756;-2.556;2023-06-22T02:11:56;1.98;;;1.80;;
47025;SDS011;32783;51.756;-2.556;2023-06-22T02:14:23;1.63;;;1.52;;
47025;SDS011;32783;51.756;-2.556;2023-06-22T02:16:49;1.52;;;1.42;;
47025;SDS011;32783;51.756;-2.556;2023-06-22T02:19:16;2.00;;;1.77;;
47025;SDS011;32783;51.756;-2.556;2023-06-22T02:21:43;1.73;;;1.50;;
47025;SDS011;32783;51.756;-2.556;2023-06-22T02:24:08;2.03;;;1.92;;
47025;SDS011;32783;51.756;-2.556;2023-06-22T02:26:34;1.90;;;1.70;;
47025;SDS011;32783;51.756;-2.556;2023-06-22T02:28:59;1.73;;;1.63;;
47025;SDS011;32783;51.756;-2.556;2023-06-22T02:31:25;1.60;;;1.50;;
47025;SDS011;32783;51.756;-2.556;2023-06-22T02:33:55;1.77;;;1.67;;
47025;SDS011;32783;51.756;-2.556;2023-06-22T02:36:23;1.55;;;1.45;;
47025;SDS011;32783;51.756;-2.556;2023-06-22T02:38:50;1.60;;;1.50;;
47025;SDS011;32783;51.756;-2.556;2023-06-22T02:41:15;2.92;;;2.03;;
47025;SDS011;32783;51.756;-2.556;2023-06-22T02:43:43;1.35;;;1.25;;
47025;SDS011;32783;51.756;-2.556;2023-06-22T02:46:12;2.00;;;1.90;;
47025;SDS011;32783;51.756;-2.556;2023-06-22T02:48:38;2.15;;;1.70;;
47025;SDS011;32783;51.756;-2.556;2023-06-22T02:51:07;1.48;;;1.38;;
47025;SDS011;32783;51.756;-2.556;2023-06-22T02:53:32;1.50;;;1.40;;
47025;SDS011;32783;51.756;-2.556;2023-06-22T02:55:58;1.55;;;1.40;;
47025;SDS011;32783;51.756;-2.556;2023-06-22T02:58:23;1.55;;;1.45;;
47025;SDS011;32783;51.756;-2.556;2023-06-22T03:00:49;1.73;;;1.63;;
47025;SDS011;32783;51.756;-2.556;2023-06-22T03:03:17;1.50;;;1.40;;
47025;SDS011;32783;51.756;-2.556;2023-06-22T03:05:43;1.42;;;1.33;;
47025;SDS011;32783;51.756;-2.556;2023-06-22T03:08:09;1.80;;;1.70;;
47025;SDS011;32783;51.756;-2.556;2023-06-22T03:10:34;1.48;;;1.38;;
47025;SDS011;32783;51.756;-2.556;2023-06-22T03:12:59;1.70;;;1.60;;
47025;SDS011;32783;51.756;-2.556;2023-06-22T03:15:25;1.42;;;1.25;;
47025;SDS011;32783;51.756;-2.556;2023-06-22T03:17:51;1.83;;;1.40;;
47025;SDS011;32783;51.756;-2.556;2023-06-22T03:20:16;1.75;;;1.55;;
47025;SDS011;32783;51.756;-2.556;2023-06-22T03:22:41;2.13;;;1.60;;
47025;SDS011;32783;51.756;-2.556;2023-06-22T03:25:07;1.50;;;1.40;;
47025;SDS011;32783;51.756;-2.556;2023-06-22T03:27:38;1.45;;;1.35;;
47025;SDS011;32783;51.756;-2.556;2023-06-22T03:30:05;1.67;;;1.58;;
47025;SDS011;32783;51.756;-2.556;2023-06-22T03:32:31;1.75;;;1.50;;
47025;SDS011;32783;51.756;-2.556;2023-06-22T03:34:57;1.50;;;1.40;;
47025;SDS011;32783;51.756;-2.556;2023-06-22T03:37:24;1.58;;;1.48;;
47025;SDS011;32783;51.756;-2.556;2023-06-22T03:39:49;1.50;;;1.40;;
47025;SDS011;32783;51.756;-2.556;2023-06-22T03:42:15;1.70;;;1.60;;
47025;SDS011;32783;51.756;-2.556;2023-06-22T03:44:40;1.60;;;1.50;;
47025;SDS011;32783;51.756;-2.556;2023-06-22T03:47:05;1.42;;;1.33;;
47025;SDS011;32783;51.756;-2.556;2023-06-22T03:49:32;1.60;;;1.48;;
47025;SDS011;32783;51.756;-2.556;2023-06-22T03:51:59;1.58;;;1.48;;
47025;SDS011;32783;51.756;-2.556;2023-06-22T03:54:24;2.28;;;1.40;;
47025;SDS011;32783;51.756;-2.556;2023-06-22T03:56:50;1.30;;;1.20;;
47025;SDS011;32783;51.756;-2.556;2023-06-22T03:59:15;1.42;;;1.33;;
47025;SDS011;32783;51.756;-2.556;2023-06-22T04:01:41;1.73;;;1.63;;
47025;SDS011;32783;51.756;-2.556;2023-06-22T04:04:06;1.70;;;1.60;;
47025;SDS011;32783;51.756;-2.556;2023-06-22T04:06:32;1.40;;;1.30;;
47025;SDS011;32783;51.756;-2.556;2023-06-22T04:08:58;2.78;;;1.48;;
47025;SDS011;32783;51.756;-2.556;2023-06-22T04:11:25;1.63;;;1.20;;
47025;SDS011;32783;51.756;-2.556;2023-06-22T04:13:51;1.80;;;1.70;;
47025;SDS011;32783;51.756;-2.556;2023-06-22T04:16:16;1.30;;;1.20;;
47025;SDS011;32783;51.756;-2.556;2023-06-22T04:18:41;1.45;;;1.35;;
47025;SDS011;32783;51.756;-2.556;2023-06-22T04:21:07;1.75;;;1.65;;
47025;SDS011;32783;51.756;-2.556;2023-06-22T04:23:32;1.40;;;1.27;;
47025;SDS011;32783;51.756;-2.556;2023-06-22T04:25:58;1.30;;;1.15;;
47025;SDS011;32783;51.756;-2.556;2023-06-22T04:28:24;1.92;;;1.60;;
47025;SDS011;32783;51.756;-2.556;2023-06-22T04:30:49;1.50;;;1.40;;
47025;SDS011;32783;51.756;-2.556;2023-06-22T04:33:16;1.42;;;1.33;;
47025;SDS011;32783;51.756;-2.556;2023-06-22T04:35:42;4.05;;;1.70;;
47025;SDS011;32783;51.756;-2.556;2023-06-22T04:38:11;1.40;;;1.30;;
47025;SDS011;32783;51.756;-2.556;2023-06-22T04:40:38;1.77;;;1.67;;
47025;SDS011;32783;51.756;-2.556;2023-06-22T04:43:04;1.13;;;1.05;;
47025;SDS011;32783;51.756;-2.556;2023-06-22T04:45:31;1.20;;;1.10;;
47025;SDS011;32783;51.756;-2.556;2023-06-22T04:47:56;1.17;;;1.08;;
47025;SDS011;32783;51.756;-2.556;2023-06-22T04:50:22;1.48;;;1.38;;
47025;SDS011;32783;51.756;-2.556;2023-06-22T04:52:48;1.67;;;1.58;;
47025;SDS011;32783;51.756;-2.556;2023-06-22T04:55:14;1.50;;;1.40;;
47025;SDS011;32783;51.756;-2.556;2023-06-22T04:57:43;1.80;;;1.50;;
47025;SDS011;32783;51.756;-2.556;2023-06-22T05:00:13;1.58;;;1.48;;
47025;SDS011;32783;51.756;-2.556;2023-06-22T05:02:42;1.50;;;1.40;;
47025;SDS011;32783;51.756;-2.556;2023-06-22T05:05:09;1.85;;;1.75;;
47025;SDS011;32783;51.756;-2.556;2023-06-22T05:07:39;2.35;;;1.38;;
47025;SDS011;32783;51.756;-2.556;2023-06-22T05:10:08;1.42;;;1.33;;
47025;SDS011;32783;51.756;-2.556;2023-06-22T05:12:40;1.73;;;1.45;;
47025;SDS011;32783;51.756;-2.556;2023-06-22T05:15:09;1.38;;;1.27;;
47025;SDS011;32783;51.756;-2.556;2023-06-22T05:17:35;1.40;;;1.30;;
47025;SDS011;32783;51.756;-2.556;2023-06-22T05:20:01;1.15;;;1.05;;
47025;SDS011;32783;51.756;-2.556;2023-06-22T05:22:29;1.80;;;1.40;;
47025;SDS011;32783;51.756;-2.556;2023-06-22T05:24:55;1.42;;;1.33;;
47025;SDS011;32783;51.756;-2.556;2023-06-22T05:27:20;1.42;;;1.23;;
47025;SDS011;32783;51.756;-2.556;2023-06-22T05:29:45;1.75;;;1.65;;
47025;SDS011;32783;51.756;-2.556;2023-06-22T05:32:11;1.60;;;1.50;;
47025;SDS011;32783;51.756;-2.556;2023-06-22T05:34:36;1.48;;;1.30;;
47025;SDS011;32783;51.756;-2.556;2023-06-22T05:37:02;1.45;;;1.35;;
47025;SDS011;32783;51.756;-2.556;2023-06-22T05:39:28;1.88;;;1.13;;
47025;SDS011;32783;51.756;-2.556;2023-06-22T05:41:53;1.23;;;1.13;;
47025;SDS011;32783;51.756;-2.556;2023-06-22T05:44:20;1.17;;;1.08;;
47025;SDS011;32783;51.756;-2.556;2023-06-22T05:46:45;1.30;;;1.15;;
47025;SDS011;32783;51.756;-2.556;2023-06-22T05:49:14;1.60;;;1.38;;
47025;SDS011;32783;51.756;-2.556;2023-06-22T05:51:39;1.40;;;1.30;;
47025;SDS011;32783;51.756;-2.556;2023-06-22T05:54:05;1.42;;;1.30;;
47025;SDS011;32783;51.756;-2.556;2023-06-22T05:56:31;1.20;;;1.10;;
47025;SDS011;32783;51.756;-2.556;2023-06-22T05:58:56;1.00;;;1.00;;
47025;SDS011;32783;51.756;-2.556;2023-06-22T06:01:22;1.40;;;1.30;;
47025;SDS011;32783;51.756;-2.556;2023-06-22T06:03:47;1.13;;;1.02;;
47025;SDS011;32783;51.756;-2.556;2023-06-22T06:06:14;1.48;;;1.38;;
47025;SDS011;32783;51.756;-2.556;2023-06-22T06:08:40;1.35;;;1.25;;
47025;SDS011;32783;51.756;-2.556;2023-06-22T06:11:06;1.80;;;1.70;;
47025;SDS011;32783;51.756;-2.556;2023-06-22T06:13:31;1.40;;;1.30;;
47025;SDS011;32783;51.756;-2.556;2023-06-22T06:15:56;1.38;;;1.27;;
47025;SDS011;32783;51.756;-2.556;2023-06-22T06:18:22;1.30;;;1.20;;
47025;SDS011;32783;51.756;-2.556;2023-06-22T06:20:47;1.30;;;1.20;;
47025;SDS011;32783;51.756;-2.556;2023-06-22T06:23:13;1.27;;;1.05;;
47025;SDS011;32783;51.756;-2.556;2023-06-22T06:25:38;1.30;;;1.20;;
47025;SDS011;32783;51.756;-2.556;2023-06-22T06:28:03;1.35;;;1.02;;
47025;SDS011;32783;51.756;-2.556;2023-06-22T06:30:29;1.35;;;1.25;;
47025;SDS011;32783;51.756;-2.556;2023-06-22T06:32:55;1.38;;;1.27;;
47025;SDS011;32783;51.756;-2.556;2023-06-22T06:35:20;1.40;;;1.30;;
47025;SDS011;32783;51.756;-2.556;2023-06-22T06:37:47;1.73;;;1.50;;
47025;SDS011;32783;51.756;-2.556;2023-06-22T06:40:13;2.08;;;1.88;;
47025;SDS011;32783;51.756;-2.556;2023-06-22T06:42:40;1.60;;;1.50;;
47025;SDS011;32783;51.756;-2.556;2023-06-22T06:45:25;3.17;;;2.13;;
47025;SDS011;32783;51.756;-2.556;2023-06-22T06:47:53;2.13;;;1.83;;
47025;SDS011;32783;51.756;-2.556;2023-06-22T06:50:19;1.63;;;1.52;;
47025;SDS011;32783;51.756;-2.556;2023-06-22T06:52:44;2.03;;;1.85;;
47025;SDS011;32783;51.756;-2.556;2023-06-22T06:55:10;2.40;;;2.20;;
47025;SDS011;32783;51.756;-2.556;2023-06-22T06:57:36;2.70;;;2.30;;
47025;SDS011;32783;51.756;-2.556;2023-06-22T07:00:03;3.13;;;1.90;;
47025;SDS011;32783;51.756;-2.556;2023-06-22T07:02:34;1.92;;;1.83;;
47025;SDS011;32783;51.756;-2.556;2023-06-22T07:05:00;2.13;;;2.00;;
47025;SDS011;32783;51.756;-2.556;2023-06-22T07:07:25;2.60;;;2.40;;
47025;SDS011;32783;51.756;-2.556;2023-06-22T07:09:50;3.40;;;1.92;;
47025;SDS011;32783;51.756;-2.556;2023-06-22T07:12:16;2.22;;;2.00;;
47025;SDS011;32783;51.756;-2.556;2023-06-22T07:14:41;2.50;;;2.17;;
47025;SDS011;32783;51.756;-2.556;2023-06-22T07:17:06;5.85;;;2.63;;
47025;SDS011;32783;51.756;-2.556;2023-06-22T07:19:32;5.30;;;2.28;;
47025;SDS011;32783;51.756;-2.556;2023-06-22T07:21:58;3.67;;;2.80;;
47025;SDS011;32783;51.756;-2.556;2023-06-22T07:24:23;2.28;;;1.95;;
47025;SDS011;32783;51.756;-2.556;2023-06-22T07:26:49;4.47;;;2.33;;
47025;SDS011;32783;51.756;-2.556;2023-06-22T07:29:18;2.42;;;2.22;;
47025;SDS011;32783;51.756;-2.556;2023-06-22T07:31:47;3.25;;;2.33;;
47025;SDS011;32783;51.756;-2.556;2023-06-22T07:34:13;1.85;;;1.73;;
47025;SDS011;32783;51.756;-2.556;2023-06-22T07:36:38;2.70;;;2.42;;
47025;SDS011;32783;51.756;-2.556;2023-06-22T07:39:04;2.90;;;2.60;;
47025;SDS011;32783;51.756;-2.556;2023-06-22T07:41:30;2.50;;;2.30;;
47025;SDS011;32783;51.756;-2.556;2023-06-22T07:43:55;4.10;;;2.55;;
47025;SDS011;32783;51.756;-2.556;2023-06-22T07:46:21;2.70;;;2.42;;
47025;SDS011;32783;51.756;-2.556;2023-06-22T07:48:46;2.55;;;2.33;;
47025;SDS011;32783;51.756;-2.556;2023-06-22T07:51:12;3.05;;;2.67;;
47025;SDS011;32783;51.756;-2.556;2023-06-22T07:53:38;2.70;;;2.50;;
47025;SDS011;32783;51.756;-2.556;2023-06-22T07:56:05;2.60;;;2.35;;
47025;SDS011;32783;51.756;-2.556;2023-06-22T07:58:32;2.63;;;2.42;;
47025;SDS011;32783;51.756;-2.556;2023-06-22T08:00:57;2.45;;;2.15;;
47025;SDS011;32783;51.756;-2.556;2023-06-22T08:03:22;4.60;;;2.60;;
47025;SDS011;32783;51.756;-2.556;2023-06-22T08:05:48;2.95;;;2.28;;
47025;SDS011;32783;51.756;-2.556;2023-06-22T08:08:13;3.38;;;2.42;;
47025;SDS011;32783;51.756;-2.556;2023-06-22T08:10:39;2.45;;;2.25;;
47025;SDS011;32783;51.756;-2.556;2023-06-22T08:13:04;2.95;;;2.35;;
47025;SDS011;32783;51.756;-2.556;2023-06-22T08:15:30;3.10;;;2.58;;
47025;SDS011;32783;51.756;-2.556;2023-06-22T08:17:55;2.80;;;2.60;;
47025;SDS011;32783;51.756;-2.556;2023-06-22T08:20:20;3.00;;;2.35;;
47025;SDS011;32783;51.756;-2.556;2023-06-22T08:22:46;3.10;;;2.50;;
47025;SDS011;32783;51.756;-2.556;2023-06-22T08:25:11;2.53;;;2.33;;
47025;SDS011;32783;51.756;-2.556;2023-06-22T08:27:38;4.40;;;2.60;;
47025;SDS011;32783;51.756;-2.556;2023-06-22T08:30:03;4.15;;;3.30;;
47025;SDS011;32783;51.756;-2.556;2023-06-22T08:32:29;2.85;;;2.15;;
47025;SDS011;32783;51.756;-2.556;2023-06-22T08:34:55;4.60;;;2.70;;
47025;SDS011;32783;51.756;-2.556;2023-06-22T08:37:21;3.10;;;2.80;;
47025;SDS011;32783;51.756;-2.556;2023-06-22T08:39:49;4.83;;;3.17;;
47025;SDS011;32783;51.756;-2.556;2023-06-22T08:42:15;4.22;;;3.03;;
47025;SDS011;32783;51.756;-2.556;2023-06-22T08:44:40;3.75;;;2.58;;
47025;SDS011;32783;51.756;-2.556;2023-06-22T08:47:06;3.33;;;3.03;;
47025;SDS011;32783;51.756;-2.556;2023-06-22T08:49:31;3.17;;;2.85;;
47025;SDS011;32783;51.756;-2.556;2023-06-22T08:51:57;2.65;;;2.45;;
47025;SDS011;32783;51.756;-2.556;2023-06-22T08:54:22;3.08;;;2.60;;
47025;SDS011;32783;51.756;-2.556;2023-06-22T08:56:48;3.40;;;2.63;;
47025;SDS011;32783;51.756;-2.556;2023-06-22T08:59:13;3.58;;;2.47;;
47025;SDS011;32783;51.756;-2.556;2023-06-22T09:01:38;2.72;;;2.40;;
47025;SDS011;32783;51.756;-2.556;2023-06-22T09:04:04;3.42;;;3.03;;
47025;SDS011;32783;51.756;-2.556;2023-06-22T09:06:31;2.78;;;2.58;;
47025;SDS011;32783;51.756;-2.556;2023-06-22T09:08:57;3.15;;;2.50;;
47025;SDS011;32783;51.756;-2.556;2023-06-22T09:11:24;3.35;;;2.85;;
47025;SDS011;32783;51.756;-2.556;2023-06-22T09:13:50;3.70;;;2.55;;
47025;SDS011;32783;51.756;-2.556;2023-06-22T09:16:17;3.72;;;2.63;;
47025;SDS011;32783;51.756;-2.556;2023-06-22T09:18:42;5.38;;;2.83;;
47025;SDS011;32783;51.756;-2.556;2023-06-22T09:21:10;3.70;;;2.63;;
47025;SDS011;32783;51.756;-2.556;2023-06-22T09:23:35;5.72;;;2.90;;
47025;SDS011;32783;51.756;-2.556;2023-06-22T09:26:01;3.05;;;2.75;;
47025;SDS011;32783;51.756;-2.556;2023-06-22T09:28:26;3.20;;;2.30;;
47025;SDS011;32783;51.756;-2.556;2023-06-22T09:30:51;3.63;;;2.67;;
47025;SDS011;32783;51.756;-2.556;2023-06-22T09:33:23;4.30;;;2.92;;
47025;SDS011;32783;51.756;-2.556;2023-06-22T09:35:49;3.33;;;2.67;;
47025;SDS011;32783;51.756;-2.556;2023-06-22T09:38:16;2.95;;;2.60;;
47025;SDS011;32783;51.756;-2.556;2023-06-22T09:40:41;4.13;;;3.08;;
47025;SDS011;32783;51.756;-2.556;2023-06-22T09:43:06;2.63;;;2.42;;
47025;SDS011;32783;51.756;-2.556;2023-06-22T09:45:32;2.30;;;2.10;;
47025;SDS011;32783;51.756;-2.556;2023-06-22T09:47:57;2.80;;;2.53;;
47025;SDS011;32783;51.756;-2.556;2023-06-22T09:50:23;3.47;;;2.33;;
47025;SDS011;32783;51.756;-2.556;2023-06-22T09:52:48;2.35;;;2.15;;
47025;SDS011;32783;51.756;-2.556;2023-06-22T09:55:19;3.08;;;2.63;;
47025;SDS011;32783;51.756;-2.556;2023-06-22T09:57:45;3.78;;;2.20;;
47025;SDS011;32783;51.756;-2.556;2023-06-22T10:00:10;2.28;;;1.92;;
47025;SDS011;32783;51.756;-2.556;2023-06-22T10:02:38;2.53;;;2.20;;
47025;SDS011;32783;51.756;-2.556;2023-06-22T10:05:04;2.60;;;2.40;;
47025;SDS011;32783;51.756;-2.556;2023-06-22T10:07:29;2.55;;;2.35;;
47025;SDS011;32783;51.756;-2.556;2023-06-22T10:09:55;3.55;;;2.10;;
47025;SDS011;32783;51.756;-2.556;2023-06-22T10:12:20;3.28;;;2.00;;
47025;SDS011;32783;51.756;-2.556;2023-06-22T10:14:46;4.22;;;2.50;;
47025;SDS011;32783;51.756;-2.556;2023-06-22T10:17:12;2.08;;;1.73;;
47025;SDS011;32783;51.756;-2.556;2023-06-22T10:19:37;3.88;;;2.30;;
47025;SDS011;32783;51.756;-2.556;2023-06-22T10:22:04;2.72;;;2.33;;
47025;SDS011;32783;51.756;-2.556;2023-06-22T10:24:30;2.67;;;2.00;;
47025;SDS011;32783;51.756;-2.556;2023-06-22T10:26:55;6.03;;;2.45;;
47025;SDS011;32783;51.756;-2.556;2023-06-22T10:29:20;2.63;;;1.73;;
47025;SDS011;32783;51.756;-2.556;2023-06-22T10:31:46;2.00;;;1.90;;
47025;SDS011;32783;51.756;-2.556;2023-06-22T10:34:11;2.08;;;1.88;;
47025;SDS011;32783;51.756;-2.556;2023-06-22T10:36:38;3.20;;;1.92;;
47025;SDS011;32783;51.756;-2.556;2023-06-22T10:39:03;2.10;;;1.90;;
47025;SDS011;32783;51.756;-2.556;2023-06-22T10:41:29;1.92;;;1.75;;
47025;SDS011;32783;51.756;-2.556;2023-06-22T10:43:55;2.40;;;2.20;;
47025;SDS011;32783;51.756;-2.556;2023-06-22T10:46:21;2.38;;;2.17;;
47025;SDS011;32783;51.756;-2.556;2023-06-22T10:48:46;2.35;;;2.15;;
47025;SDS011;32783;51.756;-2.556;2023-06-22T10:51:12;3.10;;;2.05;;
47025;SDS011;32783;51.756;-2.556;2023-06-22T10:53:37;1.85;;;1.75;;
47025;SDS011;32783;51.756;-2.556;2023-06-22T10:56:02;1.80;;;1.70;;
47025;SDS011;32783;51.756;-2.556;2023-06-22T10:58:28;2.10;;;1.90;;
47025;SDS011;32783;51.756;-2.556;2023-06-22T11:00:53;2.10;;;1.90;;
47025;SDS011;32783;51.756;-2.556;2023-06-22T11:03:18;2.25;;;2.05;;
47025;SDS011;32783;51.756;-2.556;2023-06-22T11:05:44;2.08;;;1.88;;
47025;SDS011;32783;51.756;-2.556;2023-06-22T11:08:09;2.00;;;1.80;;
47025;SDS011;32783;51.756;-2.556;2023-06-22T11:10:35;2.50;;;2.22;;
47025;SDS011;32783;51.756;-2.556;2023-06-22T11:13:00;2.35;;;1.90;;
47025;SDS011;32783;51.756;-2.556;2023-06-22T11:15:27;2.03;;;1.85;;
47025;SDS011;32783;51.756;-2.556;2023-06-22T11:17:53;2.30;;;1.83;;
47025;SDS011;32783;51.756;-2.556;2023-06-22T11:20:18;2.22;;;1.98;;
47025;SDS011;32783;51.756;-2.556;2023-06-22T11:22:43;2.10;;;1.90;;
47025;SDS011;32783;51.756;-2.556;2023-06-22T11:25:09;3.17;;;2.10;;
47025;SDS011;32783;51.756;-2.556;2023-06-22T11:27:36;2.67;;;1.85;;
47025;SDS011;32783;51.756;-2.556;2023-06-22T11:30:01;3.42;;;2.05;;
47025;SDS011;32783;51.756;-2.556;2023-06-22T11:32:27;1.83;;;1.73;;
47025;SDS011;32783;51.756;-2.556;2023-06-22T11:34:53;1.83;;;1.55;;
47025;SDS011;32783;51.756;-2.556;2023-06-22T11:37:18;1.73;;;1.60;;
47025;SDS011;32783;51.756;-2.556;2023-06-22T11:39:43;1.75;;;1.65;;
47025;SDS011;32783;51.756;-2.556;2023-06-22T11:42:09;2.35;;;1.65;;
47025;SDS011;32783;51.756;-2.556;2023-06-22T11:44:35;3.80;;;1.52;;
47025;SDS011;32783;51.756;-2.556;2023-06-22T11:47:00;2.55;;;1.63;;
47025;SDS011;32783;51.756;-2.556;2023-06-22T11:49:28;2.05;;;1.85;;
47025;SDS011;32783;51.756;-2.556;2023-06-22T11:51:53;5.53;;;1.90;;
47025;SDS011;32783;51.756;-2.556;2023-06-22T11:54:19;1.83;;;1.48;;
47025;SDS011;32783;51.756;-2.556;2023-06-22T11:56:44;2.33;;;1.83;;
47025;SDS011;32783;51.756;-2.556;2023-06-22T11:59:10;1.95;;;1.52;;
47025;SDS011;32783;51.756;-2.556;2023-06-22T12:01:35;2.65;;;1.98;;
47025;SDS011;32783;51.756;-2.556;2023-06-22T12:04:00;2.22;;;1.95;;
47025;SDS011;32783;51.756;-2.556;2023-06-22T12:06:26;1.80;;;1.60;;
47025;SDS011;32783;51.756;-2.556;2023-06-22T12:08:51;1.67;;;1.58;;
47025;SDS011;32783;51.756;-2.556;2023-06-22T12:11:16;1.92;;;1.60;;
47025;SDS011;32783;51.756;-2.556;2023-06-22T12:13:42;1.67;;;1.58;;
47025;SDS011;32783;51.756;-2.556;2023-06-22T12:16:07;2.72;;;2.45;;
47025;SDS011;32783;51.756;-2.556;2023-06-22T12:18:33;2.00;;;1.52;;
47025;SDS011;32783;51.756;-2.556;2023-06-22T12:20:58;1.92;;;1.73;;
47025;SDS011;32783;51.756;-2.556;2023-06-22T12:23:23;1.75;;;1.65;;
47025;SDS011;32783;51.756;-2.556;2023-06-22T12:25:49;1.90;;;1.70;;
47025;SDS011;32783;51.756;-2.556;2023-06-22T12:28:14;1.65;;;1.55;;
47025;SDS011;32783;51.756;-2.556;2023-06-22T12:30:39;2.60;;;1.70;;
47025;SDS011;32783;51.756;-2.556;2023-06-22T12:33:05;2.40;;;1.90;;
47025;SDS011;32783;51.756;-2.556;2023-06-22T12:35:30;1.52;;;1.42;;
47025;SDS011;32783;51.756;-2.556;2023-06-22T12:37:55;2.22;;;1.80;;
47025;SDS011;32783;51.756;-2.556;2023-06-22T12:40:21;1.80;;;1.70;;
47025;SDS011;32783;51.756;-2.556;2023-06-22T12:42:46;3.05;;;1.63;;
47025;SDS011;32783;51.756;-2.556;2023-06-22T12:45:11;2.00;;;1.85;;
47025;SDS011;32783;51.756;-2.556;2023-06-22T12:47:37;2.30;;;1.70;;
47025;SDS011;32783;51.756;-2.556;2023-06-22T12:50:02;2.03;;;1.88;;
47025;SDS011;32783;51.756;-2.556;2023-06-22T12:52:29;1.60;;;1.50;;
47025;SDS011;32783;51.756;-2.556;2023-06-22T12:54:56;2.10;;;1.90;;
47025;SDS011;32783;51.756;-2.556;2023-06-22T12:57:22;1.83;;;1.73;;
47025;SDS011;32783;51.756;-2.556;2023-06-22T12:59:48;1.90;;;1.45;;
47025;SDS011;32783;51.756;-2.556;2023-06-22T13:02:13;2.03;;;1.85;;
47025;SDS011;32783;51.756;-2.556;2023-06-22T13:04:39;1.75;;;1.58;;
47025;SDS011;32783;51.756;-2.556;2023-06-22T13:07:04;1.63;;;1.40;;
47025;SDS011;32783;51.756;-2.556;2023-06-22T13:09:29;2.38;;;1.88;;
47025;SDS011;32783;51.756;-2.556;2023-06-22T13:11:55;2.05;;;1.88;;
47025;SDS011;32783;51.756;-2.556;2023-06-22T13:14:20;1.90;;;1.55;;
47025;SDS011;32783;51.756;-2.556;2023-06-22T13:16:46;3.10;;;1.58;;
47025;SDS011;32783;51.756;-2.556;2023-06-22T13:19:11;2.55;;;1.85;;
47025;SDS011;32783;51.756;-2.556;2023-06-22T13:21:37;2.15;;;1.85;;
47025;SDS011;32783;51.756;-2.556;2023-06-22T13:24:02;2.17;;;1.80;;
47025;SDS011;32783;51.756;-2.556;2023-06-22T13:26:28;2.47;;;1.52;;
47025;SDS011;32783;51.756;-2.556;2023-06-22T13:28:54;2.15;;;1.80;;
47025;SDS011;32783;51.756;-2.556;2023-06-22T13:31:19;2.25;;;1.60;;
47025;SDS011;32783;51.756;-2.556;2023-06-22T13:33:45;2.10;;;1.63;;
47025;SDS011;32783;51.756;-2.556;2023-06-22T13:36:12;2.35;;;2.10;;
47025;SDS011;32783;51.756;-2.556;2023-06-22T13:38:38;1.65;;;1.55;;
47025;SDS011;32783;51.756;-2.556;2023-06-22T13:41:04;1.90;;;1.80;;
47025;SDS011;32783;51.756;-2.556;2023-06-22T13:43:29;2.80;;;1.60;;
47025;SDS011;32783;51.756;-2.556;2023-06-22T13:45:55;2.10;;;1.80;;
47025;SDS011;32783;51.756;-2.556;2023-06-22T13:48:20;2.35;;;1.50;;
47025;SDS011;32783;51.756;-2.556;2023-06-22T13:50:45;2.83;;;1.67;;
47025;SDS011;32783;51.756;-2.556;2023-06-22T13:53:11;2.28;;;1.90;;
47025;SDS011;32783;51.756;-2.556;2023-06-22T13:55:36;1.52;;;1.42;;
47025;SDS011;32783;51.756;-2.556;2023-06-22T13:58:01;1.80;;;1.70;;
47025;SDS011;32783;51.756;-2.556;2023-06-22T14:00:27;1.60;;;1.50;;
47025;SDS011;32783;51.756;-2.556;2023-06-22T14:02:53;1.85;;;1.65;;
47025;SDS011;32783;51.756;-2.556;2023-06-22T14:05:18;1.70;;;1.60;;
47025;SDS011;32783;51.756;-2.556;2023-06-22T14:07:44;3.70;;;1.63;;
47025;SDS011;32783;51.756;-2.556;2023-06-22T14:10:10;1.60;;;1.50;;
47025;SDS011;32783;51.756;-2.556;2023-06-22T14:12:35;1.75;;;1.65;;
47025;SDS011;32783;51.756;-2.556;2023-06-22T14:15:00;1.55;;;1.45;;
47025;SDS011;32783;51.756;-2.556;2023-06-22T14:17:26;1.45;;;1.30;;
47025;SDS011;32783;51.756;-2.556;2023-06-22T14:19:52;1.50;;;1.40;;
47025;SDS011;32783;51.756;-2.556;2023-06-22T14:22:18;1.77;;;1.40;;
47025;SDS011;32783;51.756;-2.556;2023-06-22T14:24:44;1.85;;;1.52;;
47025;SDS011;32783;51.756;-2.556;2023-06-22T14:27:09;1.60;;;1.50;;